sensor_id;sensor_type;location;lat;lon;timestamp;pressure;altitude;pressure_sealevel;temperature;humidity
17772;BME280;9010;32.624;-96.938;2022-07-25T00:02:24;98858.78;;;36.67;36.74
17772;BME280;9010;32.624;-96.938;2022-07-25T00:04:53;98866.41;;;36.65;36.49
17772;BME280;9010;32.624;-96.938;2022-07-25T00:07:21;98858.13;;;36.60;36.84
17772;BME280;9010;32.624;-96.938;2022-07-25T00:09:49;98869.19;;;36.70;36.53
17772;BME280;9010;32.624;-96.938;2022-07-25T00:12:18;98867.22;;;36.65;37.18
17772;BME280;9010;32.624;-96.938;2022-07-25T00:14:47;98865.06;;;36.67;37.14
17772;BME280;9010;32.624;-96.938;2022-07-25T00:17:15;98869.09;;;36.60;37.14
17772;BME280;9010;32.624;-96.938;2022-07-25T00:19:45;98869.03;;;36.55;37.53
17772;BME280;9010;32.624;-96.938;2022-07-25T00:22:13;98864.78;;;36.47;37.54
17772;BME280;9010;32.624;-96.938;2022-07-25T00:24:41;98860.53;;;36.56;36.09
17772;BME280;9010;32.624;-96.938;2022-07-25T00:27:10;98868.63;;;36.46;37.14
17772;BME280;9010;32.624;-96.938;2022-07-25T00:29:38;98864.94;;;36.36;38.52
17772;BME280;9010;32.624;-96.938;2022-07-25T00:32:06;98869.84;;;36.33;38.53
17772;BME280;9010;32.624;-96.938;2022-07-25T00:34:34;98872.66;;;36.39;37.73
17772;BME280;9010;32.624;-96.938;2022-07-25T00:37:04;98871.19;;;36.31;38.36
17772;BME280;9010;32.624;-96.938;2022-07-25T00:39:32;98871.44;;;36.29;38.34
17772;BME280;9010;32.624;-96.938;2022-07-25T00:42:01;98863.34;;;36.18;38.18
17772;BME280;9010;32.624;-96.938;2022-07-25T00:44:31;98871.31;;;36.19;38.21
17772;BME280;9010;32.624;-96.938;2022-07-25T00:47:00;98872.31;;;36.13;38.88
17772;BME280;9010;32.624;-96.938;2022-07-25T00:49:28;98873.97;;;36.14;38.75
17772;BME280;9010;32.624;-96.938;2022-07-25T00:51:57;98878.84;;;36.07;39.41
17772;BME280;9010;32.624;-96.938;2022-07-25T00:54:28;98877.81;;;35.97;39.28
17772;BME280;9010;32.624;-96.938;2022-07-25T00:56:56;98881.66;;;35.96;38.43
17772;BME280;9010;32.624;-96.938;2022-07-25T00:59:25;98883.50;;;35.90;40.00
17772;BME280;9010;32.624;-96.938;2022-07-25T01:01:53;98883.31;;;35.80;39.49
17772;BME280;9010;32.624;-96.938;2022-07-25T01:04:21;98872.81;;;35.72;39.73
17772;BME280;9010;32.624;-96.938;2022-07-25T01:06:50;98884.81;;;35.71;39.43
17772;BME280;9010;32.624;-96.938;2022-07-25T01:09:19;98895.13;;;35.64;39.56
17772;BME280;9010;32.624;-96.938;2022-07-25T01:11:50;98882.44;;;35.58;39.90
17772;BME280;9010;32.624;-96.938;2022-07-25T01:14:18;98881.66;;;35.46;40.32
17772;BME280;9010;32.624;-96.938;2022-07-25T01:16:48;98887.06;;;35.41;40.38
17772;BME280;9010;32.624;-96.938;2022-07-25T01:19:16;98899.75;;;35.47;40.16
17772;BME280;9010;32.624;-96.938;2022-07-25T01:21:46;98892.47;;;35.36;41.34
17772;BME280;9010;32.624;-96.938;2022-07-25T01:24:14;98890.72;;;35.30;41.78
17772;BME280;9010;32.624;-96.938;2022-07-25T01:26:43;98882.00;;;35.16;42.11
17772;BME280;9010;32.624;-96.938;2022-07-25T01:29:11;98902.56;;;35.18;42.32
17772;BME280;9010;32.624;-96.938;2022-07-25T01:31:39;98899.97;;;35.12;43.17
17772;BME280;9010;32.624;-96.938;2022-07-25T01:34:07;98894.41;;;35.07;43.04
17772;BME280;9010;32.624;-96.938;2022-07-25T01:36:35;98896.19;;;35.01;43.64
17772;BME280;9010;32.624;-96.938;2022-07-25T01:39:05;98898.50;;;34.93;44.39
17772;BME280;9010;32.624;-96.938;2022-07-25T01:41:34;98889.38;;;34.87;44.37
17772;BME280;9010;32.624;-96.938;2022-07-25T01:44:02;98893.84;;;34.77;45.82
17772;BME280;9010;32.624;-96.938;2022-07-25T01:46:31;98887.94;;;34.68;45.97
17772;BME280;9010;32.624;-96.938;2022-07-25T01:48:59;98893.53;;;34.61;45.40
17772;BME280;9010;32.624;-96.938;2022-07-25T01:51:27;98894.19;;;34.57;45.97
17772;BME280;9010;32.624;-96.938;2022-07-25T01:53:55;98885.91;;;34.52;46.77
17772;BME280;9010;32.624;-96.938;2022-07-25T01:56:25;98890.94;;;34.43;46.99
17772;BME280;9010;32.624;-96.938;2022-07-25T01:58:54;98895.47;;;34.38;47.52
17772;BME280;9010;32.624;-96.938;2022-07-25T02:01:22;98894.44;;;34.27;48.66
17772;BME280;9010;32.624;-96.938;2022-07-25T02:03:50;98891.81;;;34.21;49.72
17772;BME280;9010;32.624;-96.938;2022-07-25T02:06:18;98900.16;;;34.14;48.60
17772;BME280;9010;32.624;-96.938;2022-07-25T02:08:47;98888.13;;;34.03;49.33
17772;BME280;9010;32.624;-96.938;2022-07-25T02:11:15;98889.09;;;33.97;49.36
17772;BME280;9010;32.624;-96.938;2022-07-25T02:13:45;98889.00;;;33.92;50.46
17772;BME280;9010;32.624;-96.938;2022-07-25T02:16:14;98898.59;;;33.83;50.21
17772;BME280;9010;32.624;-96.938;2022-07-25T02:18:43;98897.44;;;33.79;50.41
17772;BME280;9010;32.624;-96.938;2022-07-25T02:21:11;98903.00;;;33.73;51.19
17772;BME280;9010;32.624;-96.938;2022-07-25T02:23:39;98891.50;;;33.59;51.38
17772;BME280;9010;32.624;-96.938;2022-07-25T02:26:08;98904.41;;;33.64;51.49
17772;BME280;9010;32.624;-96.938;2022-07-25T02:28:36;98907.47;;;33.55;51.80
17772;BME280;9010;32.624;-96.938;2022-07-25T02:31:06;98907.59;;;33.49;52.16
17772;BME280;9010;32.624;-96.938;2022-07-25T02:33:35;98911.09;;;33.38;51.96
17772;BME280;9010;32.624;-96.938;2022-07-25T02:36:03;98916.56;;;33.38;53.00
17772;BME280;9010;32.624;-96.938;2022-07-25T02:38:32;98924.25;;;33.29;53.86
17772;BME280;9010;32.624;-96.938;2022-07-25T02:41:00;98921.66;;;33.23;53.67
17772;BME280;9010;32.624;-96.938;2022-07-25T02:43:28;98929.06;;;33.16;53.89
17772;BME280;9010;32.624;-96.938;2022-07-25T02:45:57;98929.53;;;33.13;54.47
17772;BME280;9010;32.624;-96.938;2022-07-25T02:48:26;98931.50;;;33.06;53.72
17772;BME280;9010;32.624;-96.938;2022-07-25T02:50:55;98933.28;;;33.00;53.88
17772;BME280;9010;32.624;-96.938;2022-07-25T02:53:23;98930.63;;;32.93;53.91
17772;BME280;9010;32.624;-96.938;2022-07-25T02:55:51;98930.50;;;32.88;53.60
17772;BME280;9010;32.624;-96.938;2022-07-25T02:58:20;98931.78;;;32.86;53.51
17772;BME280;9010;32.624;-96.938;2022-07-25T03:00:48;98930.00;;;32.80;53.62
17772;BME280;9010;32.624;-96.938;2022-07-25T03:03:16;98932.34;;;32.76;54.28
17772;BME280;9010;32.624;-96.938;2022-07-25T03:05:46;98937.06;;;32.69;54.38
17772;BME280;9010;32.624;-96.938;2022-07-25T03:08:14;98932.06;;;32.66;54.17
17772;BME280;9010;32.624;-96.938;2022-07-25T03:10:43;98938.56;;;32.65;54.59
17772;BME280;9010;32.624;-96.938;2022-07-25T03:13:11;98945.16;;;32.58;56.50
17772;BME280;9010;32.624;-96.938;2022-07-25T03:15:39;98944.59;;;32.49;56.59
17772;BME280;9010;32.624;-96.938;2022-07-25T03:18:07;98936.50;;;32.42;56.55
17772;BME280;9010;32.624;-96.938;2022-07-25T03:20:36;98939.31;;;32.36;56.60
17772;BME280;9010;32.624;-96.938;2022-07-25T03:23:05;98940.19;;;32.30;57.12
17772;BME280;9010;32.624;-96.938;2022-07-25T03:25:34;98939.84;;;32.26;58.53
17772;BME280;9010;32.624;-96.938;2022-07-25T03:28:02;98941.19;;;32.17;59.20
17772;BME280;9010;32.624;-96.938;2022-07-25T03:30:30;98943.94;;;32.17;57.51
17772;BME280;9010;32.624;-96.938;2022-07-25T03:32:59;98940.16;;;32.18;57.35
17772;BME280;9010;32.624;-96.938;2022-07-25T03:35:27;98950.81;;;32.20;56.00
17772;BME280;9010;32.624;-96.938;2022-07-25T03:37:59;98952.03;;;32.24;55.82
17772;BME280;9010;32.624;-96.938;2022-07-25T03:40:29;98945.41;;;32.13;57.80
17772;BME280;9010;32.624;-96.938;2022-07-25T03:42:58;98954.34;;;32.20;57.39
17772;BME280;9010;32.624;-96.938;2022-07-25T03:45:26;98955.41;;;32.19;57.55
17772;BME280;9010;32.624;-96.938;2022-07-25T03:47:54;98953.75;;;32.18;57.35
17772;BME280;9010;32.624;-96.938;2022-07-25T03:50:23;98954.56;;;32.19;57.31
17772;BME280;9010;32.624;-96.938;2022-07-25T03:52:51;98965.44;;;32.19;57.03
17772;BME280;9010;32.624;-96.938;2022-07-25T03:55:19;98955.00;;;32.16;57.49
17772;BME280;9010;32.624;-96.938;2022-07-25T03:57:49;98954.22;;;32.15;55.58
17772;BME280;9010;32.624;-96.938;2022-07-25T04:00:17;98953.81;;;32.12;56.84
17772;BME280;9010;32.624;-96.938;2022-07-25T04:02:46;98940.09;;;32.00;57.19
17772;BME280;9010;32.624;-96.938;2022-07-25T04:05:14;98955.31;;;32.08;56.11
17772;BME280;9010;32.624;-96.938;2022-07-25T04:07:42;98955.75;;;32.05;56.73
17772;BME280;9010;32.624;-96.938;2022-07-25T04:10:11;98955.16;;;32.03;55.85
17772;BME280;9010;32.624;-96.938;2022-07-25T04:12:39;98952.84;;;32.00;55.74
17772;BME280;9010;32.624;-96.938;2022-07-25T04:15:09;98958.94;;;32.02;56.05
17772;BME280;9010;32.624;-96.938;2022-07-25T04:17:38;98957.25;;;32.01;56.19
17772;BME280;9010;32.624;-96.938;2022-07-25T04:20:07;98965.22;;;32.02;57.14
17772;BME280;9010;32.624;-96.938;2022-07-25T04:22:35;98956.03;;;31.97;57.42
17772;BME280;9010;32.624;-96.938;2022-07-25T04:25:04;98951.88;;;31.94;56.55
17772;BME280;9010;32.624;-96.938;2022-07-25T04:27:32;98960.03;;;31.94;56.29
17772;BME280;9010;32.624;-96.938;2022-07-25T04:30:01;98957.75;;;31.91;57.23
17772;BME280;9010;32.624;-96.938;2022-07-25T04:32:30;98959.03;;;31.88;56.85
17772;BME280;9010;32.624;-96.938;2022-07-25T04:34:59;98962.44;;;31.84;57.59
17772;BME280;9010;32.624;-96.938;2022-07-25T04:37:27;98961.00;;;31.81;58.93
17772;BME280;9010;32.624;-96.938;2022-07-25T04:39:55;98963.81;;;31.68;57.91
17772;BME280;9010;32.624;-96.938;2022-07-25T04:42:24;98969.84;;;31.70;58.23
17772;BME280;9010;32.624;-96.938;2022-07-25T04:44:53;98973.22;;;31.72;58.85
17772;BME280;9010;32.624;-96.938;2022-07-25T04:47:21;98973.09;;;31.85;57.85
17772;BME280;9010;32.624;-96.938;2022-07-25T04:49:51;98971.34;;;31.91;57.07
17772;BME280;9010;32.624;-96.938;2022-07-25T04:52:19;98981.53;;;32.02;57.30
17772;BME280;9010;32.624;-96.938;2022-07-25T04:54:47;98980.34;;;31.92;58.35
17772;BME280;9010;32.624;-96.938;2022-07-25T04:57:15;98980.59;;;31.90;58.22
17772;BME280;9010;32.624;-96.938;2022-07-25T04:59:44;98983.38;;;31.83;59.26
17772;BME280;9010;32.624;-96.938;2022-07-25T05:02:12;98988.97;;;31.88;59.00
17772;BME280;9010;32.624;-96.938;2022-07-25T05:04:40;98987.56;;;31.79;59.08
17772;BME280;9010;32.624;-96.938;2022-07-25T05:07:10;98991.56;;;31.77;59.77
17772;BME280;9010;32.624;-96.938;2022-07-25T05:09:38;98993.00;;;31.79;60.63
17772;BME280;9010;32.624;-96.938;2022-07-25T05:12:07;98991.72;;;31.82;60.92
17772;BME280;9010;32.624;-96.938;2022-07-25T05:14:35;98987.13;;;31.82;61.61
17772;BME280;9010;32.624;-96.938;2022-07-25T05:17:03;98990.13;;;31.74;62.75
17772;BME280;9010;32.624;-96.938;2022-07-25T05:19:32;98990.72;;;31.76;63.18
17772;BME280;9010;32.624;-96.938;2022-07-25T05:22:00;98993.69;;;31.75;63.84
17772;BME280;9010;32.624;-96.938;2022-07-25T05:24:32;98997.25;;;31.75;65.08
17772;BME280;9010;32.624;-96.938;2022-07-25T05:27:01;98993.13;;;31.66;66.52
17772;BME280;9010;32.624;-96.938;2022-07-25T05:29:30;99000.69;;;31.64;67.71
17772;BME280;9010;32.624;-96.938;2022-07-25T05:32:05;99006.91;;;31.65;69.83
17772;BME280;9010;32.624;-96.938;2022-07-25T05:34:33;99004.44;;;31.63;68.80
17772;BME280;9010;32.624;-96.938;2022-07-25T05:37:01;99002.16;;;31.60;70.04
17772;BME280;9010;32.624;-96.938;2022-07-25T05:39:31;99005.72;;;31.61;70.26
17772;BME280;9010;32.624;-96.938;2022-07-25T05:42:00;99007.19;;;31.57;70.89
17772;BME280;9010;32.624;-96.938;2022-07-25T05:44:28;99015.75;;;31.60;71.66
17772;BME280;9010;32.624;-96.938;2022-07-25T05:46:56;99005.56;;;31.56;72.06
17772;BME280;9010;32.624;-96.938;2022-07-25T05:49:24;99012.44;;;31.58;71.75
17772;BME280;9010;32.624;-96.938;2022-07-25T05:51:53;99011.16;;;31.61;72.11
17772;BME280;9010;32.624;-96.938;2022-07-25T05:54:21;99019.31;;;31.61;72.96
17772;BME280;9010;32.624;-96.938;2022-07-25T05:56:51;99015.59;;;31.55;73.07
17772;BME280;9010;32.624;-96.938;2022-07-25T05:59:19;99013.91;;;31.54;73.96
17772;BME280;9010;32.624;-96.938;2022-07-25T06:01:47;99012.47;;;31.52;74.37
17772;BME280;9010;32.624;-96.938;2022-07-25T06:04:16;99009.72;;;31.58;73.75
17772;BME280;9010;32.624;-96.938;2022-07-25T06:06:44;99016.44;;;31.56;74.46
17772;BME280;9010;32.624;-96.938;2022-07-25T06:09:16;99012.03;;;31.55;75.19
17772;BME280;9010;32.624;-96.938;2022-07-25T06:11:44;99013.75;;;31.49;75.51
17772;BME280;9010;32.624;-96.938;2022-07-25T06:14:14;99006.00;;;31.46;76.43
17772;BME280;9010;32.624;-96.938;2022-07-25T06:16:42;99010.00;;;31.44;76.63
17772;BME280;9010;32.624;-96.938;2022-07-25T06:19:11;99019.81;;;31.45;76.38
17772;BME280;9010;32.624;-96.938;2022-07-25T06:21:40;99020.63;;;31.45;75.85
17772;BME280;9010;32.624;-96.938;2022-07-25T06:24:08;99021.06;;;31.49;75.91
17772;BME280;9010;32.624;-96.938;2022-07-25T06:26:37;99024.22;;;31.39;77.72
17772;BME280;9010;32.624;-96.938;2022-07-25T06:29:05;99026.72;;;31.47;75.94
17772;BME280;9010;32.624;-96.938;2022-07-25T06:31:35;99030.06;;;31.43;76.46
17772;BME280;9010;32.624;-96.938;2022-07-25T06:34:03;99033.63;;;31.43;76.67
17772;BME280;9010;32.624;-96.938;2022-07-25T06:36:32;99032.38;;;31.39;76.40
17772;BME280;9010;32.624;-96.938;2022-07-25T06:39:00;99037.59;;;31.41;76.80
17772;BME280;9010;32.624;-96.938;2022-07-25T06:41:29;99039.75;;;31.32;78.89
17772;BME280;9010;32.624;-96.938;2022-07-25T06:43:57;99044.59;;;31.23;78.69
17772;BME280;9010;32.624;-96.938;2022-07-25T06:46:25;99039.19;;;31.17;80.21
17772;BME280;9010;32.624;-96.938;2022-07-25T06:48:58;99028.81;;;31.07;79.81
17772;BME280;9010;32.624;-96.938;2022-07-25T06:51:26;99028.75;;;31.14;79.13
17772;BME280;9010;32.624;-96.938;2022-07-25T06:53:54;99020.25;;;31.04;78.59
17772;BME280;9010;32.624;-96.938;2022-07-25T06:56:23;99024.88;;;30.97;81.78
17772;BME280;9010;32.624;-96.938;2022-07-25T06:58:53;99020.94;;;30.93;84.81
17772;BME280;9010;32.624;-96.938;2022-07-25T07:01:21;99023.63;;;30.86;84.53
17772;BME280;9010;32.624;-96.938;2022-07-25T07:03:49;99019.28;;;30.79;85.60
17772;BME280;9010;32.624;-96.938;2022-07-25T07:06:19;99010.75;;;30.75;83.74
17772;BME280;9010;32.624;-96.938;2022-07-25T07:08:47;99022.84;;;30.79;80.96
17772;BME280;9010;32.624;-96.938;2022-07-25T07:11:15;99023.03;;;30.77;84.29
17772;BME280;9010;32.624;-96.938;2022-07-25T07:13:44;99025.16;;;30.75;82.33
17772;BME280;9010;32.624;-96.938;2022-07-25T07:16:12;99027.03;;;30.75;83.90
17772;BME280;9010;32.624;-96.938;2022-07-25T07:18:40;99022.88;;;30.72;82.53
17772;BME280;9010;32.624;-96.938;2022-07-25T07:21:08;99006.84;;;30.58;81.69
17772;BME280;9010;32.624;-96.938;2022-07-25T07:23:38;99027.47;;;30.65;82.00
17772;BME280;9010;32.624;-96.938;2022-07-25T07:26:07;99030.41;;;30.70;80.60
17772;BME280;9010;32.624;-96.938;2022-07-25T07:28:35;99022.88;;;30.72;80.69
17772;BME280;9010;32.624;-96.938;2022-07-25T07:31:03;99027.25;;;30.73;82.81
17772;BME280;9010;32.624;-96.938;2022-07-25T07:33:32;99023.91;;;30.71;81.79
17772;BME280;9010;32.624;-96.938;2022-07-25T07:36:01;99032.47;;;30.68;80.75
17772;BME280;9010;32.624;-96.938;2022-07-25T07:38:29;99025.34;;;30.74;80.02
17772;BME280;9010;32.624;-96.938;2022-07-25T07:40:59;99034.94;;;30.76;79.53
17772;BME280;9010;32.624;-96.938;2022-07-25T07:43:27;99025.75;;;30.77;79.96
17772;BME280;9010;32.624;-96.938;2022-07-25T07:45:57;99036.44;;;30.72;82.05
17772;BME280;9010;32.624;-96.938;2022-07-25T07:48:25;99035.41;;;30.73;82.57
17772;BME280;9010;32.624;-96.938;2022-07-25T07:50:54;99022.69;;;30.67;81.28
17772;BME280;9010;32.624;-96.938;2022-07-25T07:53:22;99016.19;;;30.68;80.41
17772;BME280;9010;32.624;-96.938;2022-07-25T07:56:13;99026.19;;;30.74;80.48
17772;BME280;9010;32.624;-96.938;2022-07-25T07:58:41;99026.84;;;30.70;80.79
17772;BME280;9010;32.624;-96.938;2022-07-25T08:01:12;99022.88;;;30.66;83.04
17772;BME280;9010;32.624;-96.938;2022-07-25T08:03:40;99030.00;;;30.60;81.32
17772;BME280;9010;32.624;-96.938;2022-07-25T08:06:08;99036.69;;;30.58;82.05
17772;BME280;9010;32.624;-96.938;2022-07-25T08:08:58;99034.19;;;30.56;82.95
17772;BME280;9010;32.624;-96.938;2022-07-25T08:11:28;99038.78;;;30.56;81.66
17772;BME280;9010;32.624;-96.938;2022-07-25T08:13:56;99036.28;;;30.54;81.38
17772;BME280;9010;32.624;-96.938;2022-07-25T08:16:25;99047.78;;;30.56;81.61
17772;BME280;9010;32.624;-96.938;2022-07-25T08:18:53;99047.56;;;30.51;81.60
17772;BME280;9010;32.624;-96.938;2022-07-25T08:21:21;99045.06;;;30.43;83.91
17772;BME280;9010;32.624;-96.938;2022-07-25T08:23:52;99044.66;;;30.40;83.33
17772;BME280;9010;32.624;-96.938;2022-07-25T08:26:21;99039.66;;;30.37;82.18
17772;BME280;9010;32.624;-96.938;2022-07-25T08:28:50;99032.56;;;30.42;82.23
17772;BME280;9010;32.624;-96.938;2022-07-25T08:31:19;99037.78;;;30.37;83.18
17772;BME280;9010;32.624;-96.938;2022-07-25T08:33:47;99039.84;;;30.35;82.74
17772;BME280;9010;32.624;-96.938;2022-07-25T08:36:15;99044.03;;;30.38;82.83
17772;BME280;9010;32.624;-96.938;2022-07-25T08:38:43;99037.53;;;30.32;83.10
17772;BME280;9010;32.624;-96.938;2022-07-25T08:41:12;99039.22;;;30.33;81.23
17772;BME280;9010;32.624;-96.938;2022-07-25T08:43:41;99032.13;;;30.32;81.48
17772;BME280;9010;32.624;-96.938;2022-07-25T08:46:12;99047.78;;;30.30;81.22
17772;BME280;9010;32.624;-96.938;2022-07-25T08:48:41;99037.34;;;30.27;81.16
17772;BME280;9010;32.624;-96.938;2022-07-25T08:51:10;99042.56;;;30.29;78.87
17772;BME280;9010;32.624;-96.938;2022-07-25T08:53:38;99035.44;;;30.34;76.79
17772;BME280;9010;32.624;-96.938;2022-07-25T08:56:08;99035.88;;;30.31;75.83
17772;BME280;9010;32.624;-96.938;2022-07-25T08:58:36;99037.78;;;30.31;76.51
17772;BME280;9010;32.624;-96.938;2022-07-25T09:01:04;99035.06;;;30.24;76.19
17772;BME280;9010;32.624;-96.938;2022-07-25T09:03:35;99046.13;;;30.23;76.50
17772;BME280;9010;32.624;-96.938;2022-07-25T09:06:14;99050.50;;;30.17;75.21
17772;BME280;9010;32.624;-96.938;2022-07-25T09:08:50;99047.59;;;30.18;75.67
17772;BME280;9010;32.624;-96.938;2022-07-25T09:11:29;99058.88;;;30.22;74.68
17772;BME280;9010;32.624;-96.938;2022-07-25T09:13:59;99057.59;;;30.18;75.05
17772;BME280;9010;32.624;-96.938;2022-07-25T09:16:29;99059.28;;;30.19;75.16
17772;BME280;9010;32.624;-96.938;2022-07-25T09:19:12;99056.13;;;30.09;77.54
17772;BME280;9010;32.624;-96.938;2022-07-25T09:21:42;99067.19;;;30.01;78.36
17772;BME280;9010;32.624;-96.938;2022-07-25T09:24:13;99067.00;;;29.96;79.29
17772;BME280;9010;32.624;-96.938;2022-07-25T09:26:46;99066.38;;;29.94;79.91
17772;BME280;9010;32.624;-96.938;2022-07-25T09:29:17;99066.81;;;29.91;80.57
17772;BME280;9010;32.624;-96.938;2022-07-25T09:31:45;99056.56;;;29.86;78.89
17772;BME280;9010;32.624;-96.938;2022-07-25T09:34:28;99069.94;;;29.88;78.84
17772;BME280;9010;32.624;-96.938;2022-07-25T09:36:59;99065.53;;;29.87;78.13
17772;BME280;9010;32.624;-96.938;2022-07-25T09:39:35;99073.66;;;29.87;78.42
17772;BME280;9010;32.624;-96.938;2022-07-25T09:42:16;99073.25;;;29.83;79.92
17772;BME280;9010;32.624;-96.938;2022-07-25T09:44:59;99074.88;;;29.78;78.97
17772;BME280;9010;32.624;-96.938;2022-07-25T09:47:29;99075.53;;;29.80;79.63
17772;BME280;9010;32.624;-96.938;2022-07-25T09:49:59;99077.81;;;29.76;79.67
17772;BME280;9010;32.624;-96.938;2022-07-25T09:52:28;99080.09;;;29.79;78.83
17772;BME280;9010;32.624;-96.938;2022-07-25T09:54:56;99075.69;;;29.72;79.26
17772;BME280;9010;32.624;-96.938;2022-07-25T09:57:26;99076.53;;;29.72;78.88
17772;BME280;9010;32.624;-96.938;2022-07-25T09:59:55;99074.47;;;29.68;78.84
17772;BME280;9010;32.624;-96.938;2022-07-25T10:02:40;99079.88;;;29.68;78.51
17772;BME280;9010;32.624;-96.938;2022-07-25T10:05:15;99079.66;;;29.62;79.67
17772;BME280;9010;32.624;-96.938;2022-07-25T10:07:47;99077.56;;;29.64;79.60
17772;BME280;9010;32.624;-96.938;2022-07-25T10:10:27;99084.63;;;29.52;80.46
17772;BME280;9010;32.624;-96.938;2022-07-25T10:13:04;99088.00;;;29.54;80.12
17772;BME280;9010;32.624;-96.938;2022-07-25T10:15:44;99079.63;;;29.49;80.30
17772;BME280;9010;32.624;-96.938;2022-07-25T10:18:14;99084.84;;;29.51;81.65
17772;BME280;9010;32.624;-96.938;2022-07-25T10:20:45;99081.72;;;29.47;80.01
17772;BME280;9010;32.624;-96.938;2022-07-25T10:23:21;99079.41;;;29.44;80.90
17772;BME280;9010;32.624;-96.938;2022-07-25T10:26:07;99075.00;;;29.43;80.87
17772;BME280;9010;32.624;-96.938;2022-07-25T10:28:38;99076.06;;;29.42;80.58
17772;BME280;9010;32.624;-96.938;2022-07-25T10:31:17;99084.63;;;29.39;80.81
17772;BME280;9010;32.624;-96.938;2022-07-25T10:33:51;99082.94;;;29.38;81.37
17772;BME280;9010;32.624;-96.938;2022-07-25T10:36:22;99100.44;;;29.36;81.75
17772;BME280;9010;32.624;-96.938;2022-07-25T10:38:54;99097.28;;;29.32;83.53
17772;BME280;9010;32.624;-96.938;2022-07-25T10:41:24;99089.34;;;29.24;83.42
17772;BME280;9010;32.624;-96.938;2022-07-25T10:43:58;99088.88;;;29.14;83.58
17772;BME280;9010;32.624;-96.938;2022-07-25T10:46:28;99089.06;;;29.06;83.51
17772;BME280;9010;32.624;-96.938;2022-07-25T10:48:59;99098.66;;;29.15;84.46
17772;BME280;9010;32.624;-96.938;2022-07-25T10:51:32;99103.84;;;29.10;84.63
17772;BME280;9010;32.624;-96.938;2022-07-25T10:54:12;99100.72;;;29.13;85.03
17772;BME280;9010;32.624;-96.938;2022-07-25T10:56:51;99103.44;;;29.13;84.96
17772;BME280;9010;32.624;-96.938;2022-07-25T10:59:27;99103.00;;;29.09;85.64
17772;BME280;9010;32.624;-96.938;2022-07-25T11:01:56;99104.47;;;29.12;87.06
17772;BME280;9010;32.624;-96.938;2022-07-25T11:04:24;99103.63;;;29.05;86.39
17772;BME280;9010;32.624;-96.938;2022-07-25T11:06:54;99105.25;;;28.99;87.19
17772;BME280;9010;32.624;-96.938;2022-07-25T11:09:24;99104.81;;;28.96;87.57
17772;BME280;9010;32.624;-96.938;2022-07-25T11:11:54;99111.91;;;28.97;87.06
17772;BME280;9010;32.624;-96.938;2022-07-25T11:14:24;99117.72;;;28.94;87.53
17772;BME280;9010;32.624;-96.938;2022-07-25T11:16:53;99120.22;;;28.95;87.63
17772;BME280;9010;32.624;-96.938;2022-07-25T11:19:23;99122.69;;;28.90;88.54
17772;BME280;9010;32.624;-96.938;2022-07-25T11:21:55;99133.75;;;28.89;89.27
17772;BME280;9010;32.624;-96.938;2022-07-25T11:24:33;99127.66;;;28.80;90.39
17772;BME280;9010;32.624;-96.938;2022-07-25T11:27:02;99127.03;;;28.85;90.65
17772;BME280;9010;32.624;-96.938;2022-07-25T11:29:31;99128.47;;;28.81;91.39
17772;BME280;9010;32.624;-96.938;2022-07-25T11:32:00;99134.44;;;28.70;92.32
17772;BME280;9010;32.624;-96.938;2022-07-25T11:34:30;99142.56;;;28.70;92.32
17772;BME280;9010;32.624;-96.938;2022-07-25T11:37:03;99137.81;;;28.72;92.54
17772;BME280;9010;32.624;-96.938;2022-07-25T11:39:34;99143.84;;;28.74;93.25
17772;BME280;9010;32.624;-96.938;2022-07-25T11:42:03;99136.13;;;28.71;92.29
17772;BME280;9010;32.624;-96.938;2022-07-25T11:44:33;99137.53;;;28.67;92.94
17772;BME280;9010;32.624;-96.938;2022-07-25T11:47:03;99150.66;;;28.70;92.93
17772;BME280;9010;32.624;-96.938;2022-07-25T11:49:42;99153.78;;;28.67;93.58
17772;BME280;9010;32.624;-96.938;2022-07-25T11:52:20;99159.19;;;28.67;94.91
17772;BME280;9010;32.624;-96.938;2022-07-25T11:54:52;99155.84;;;28.65;94.20
17772;BME280;9010;32.624;-96.938;2022-07-25T11:57:22;99161.63;;;28.62;93.96
17772;BME280;9010;32.624;-96.938;2022-07-25T11:59:50;99156.59;;;28.59;94.42
17772;BME280;9010;32.624;-96.938;2022-07-25T12:02:23;99162.41;;;28.56;95.31
17772;BME280;9010;32.624;-96.938;2022-07-25T12:04:55;99166.78;;;28.57;95.13
17772;BME280;9010;32.624;-96.938;2022-07-25T12:07:40;99167.44;;;28.59;95.53
17772;BME280;9010;32.624;-96.938;2022-07-25T12:10:12;99176.78;;;28.56;96.81
17772;BME280;9010;32.624;-96.938;2022-07-25T12:12:42;99180.09;;;28.51;97.97
17772;BME280;9010;32.624;-96.938;2022-07-25T12:15:11;99183.63;;;28.52;96.88
17772;BME280;9010;32.624;-96.938;2022-07-25T12:17:40;99184.44;;;28.52;97.61
17772;BME280;9010;32.624;-96.938;2022-07-25T12:20:14;99184.44;;;28.52;97.27
17772;BME280;9010;32.624;-96.938;2022-07-25T12:22:44;99185.75;;;28.57;98.11
17772;BME280;9010;32.624;-96.938;2022-07-25T12:25:13;99183.03;;;28.57;100.00
17772;BME280;9010;32.624;-96.938;2022-07-25T12:27:42;99188.22;;;28.58;97.73
17772;BME280;9010;32.624;-96.938;2022-07-25T12:30:11;99193.25;;;28.61;97.37
17772;BME280;9010;32.624;-96.938;2022-07-25T12:32:40;99192.50;;;28.67;97.43
17772;BME280;9010;32.624;-96.938;2022-07-25T12:35:10;99196.44;;;28.65;98.21
17772;BME280;9010;32.624;-96.938;2022-07-25T12:37:39;99195.03;;;28.69;98.58
17772;BME280;9010;32.624;-96.938;2022-07-25T12:40:11;99192.94;;;28.71;100.00
17772;BME280;9010;32.624;-96.938;2022-07-25T12:42:39;99190.47;;;28.76;98.67
17772;BME280;9010;32.624;-96.938;2022-07-25T12:45:09;99181.34;;;28.77;100.00
17772;BME280;9010;32.624;-96.938;2022-07-25T12:47:37;99181.78;;;28.80;98.04
17772;BME280;9010;32.624;-96.938;2022-07-25T12:50:06;99181.72;;;28.74;97.56
17772;BME280;9010;32.624;-96.938;2022-07-25T12:52:35;99193.03;;;28.84;98.79
17772;BME280;9010;32.624;-96.938;2022-07-25T12:55:17;99185.97;;;28.83;99.62
17772;BME280;9010;32.624;-96.938;2022-07-25T12:57:45;99205.09;;;28.81;100.00
17772;BME280;9010;32.624;-96.938;2022-07-25T13:00:15;99205.94;;;28.82;100.00
17772;BME280;9010;32.624;-96.938;2022-07-25T13:02:44;99205.94;;;28.82;98.39
17772;BME280;9010;32.624;-96.938;2022-07-25T13:05:12;99195.16;;;28.88;100.00